Time;durP1;ratioP1;P1;durP2;ratioP2;P2;SDS_P1;SDS_P2;PMS_P1;PMS_P2;Temp;Humidity;BMP_temperature;BMP_pressure;BME280_temperature;BME280_humidity;BME280_pressure;Samples;Min_cycle;Max_cycle;Signal;HPM_P1;HPM_P2
2023/02/23 06:53:54;;;;;;;37.13;22.55;;;;;;;7.76;68.45;99560.78;10324525;28;20061;-78
2023/02/23 06:59:27;;;;;;;43.08;24.95;;;;;;;7.89;68.10;99567.00;10358056;28;20144;-81
2023/02/23 07:04:29;;;;;;;47.15;27.00;;;;;;;7.95;68.05;99571.88;10355882;28;20058;-80
2023/02/23 07:09:31;;;;;;;49.13;26.75;;;;;;;8.04;67.80;99580.94;10351256;28;20491;-79
2023/02/23 07:14:47;;;;;;;47.55;26.05;;;;;;;8.08;67.81;99576.41;10353727;28;20050;-79
2023/02/23 07:19:48;;;;;;;43.05;24.45;;;;;;;8.07;68.11;99585.13;10348536;28;20054;-79
2023/02/23 07:24:51;;;;;;;49.83;23.98;;;;;;;8.13;67.91;99595.25;10349357;28;20157;-80
2023/02/23 07:29:53;;;;;;;36.58;23.55;;;;;;;8.13;68.01;99593.50;10352679;28;20136;-79
2023/02/23 07:34:55;;;;;;;68.03;28.60;;;;;;;8.22;67.83;99597.34;10357893;28;20521;-79
2023/02/23 07:40:03;;;;;;;51.83;25.58;;;;;;;8.31;67.82;99602.03;10360378;28;20085;-79
2023/02/23 07:45:05;;;;;;;46.50;23.75;;;;;;;8.34;67.57;99604.50;10358550;28;20053;-79
2023/02/23 07:50:09;;;;;;;50.50;26.38;;;;;;;8.41;67.48;99605.81;10356554;28;20455;-79
2023/02/23 07:55:11;;;;;;;102.40;38.10;;;;;;;8.51;67.67;99606.97;10352451;28;20129;-79
2023/02/23 08:00:13;;;;;;;58.33;34.25;;;;;;;8.53;67.69;99616.41;10353838;28;20041;-79
2023/02/23 08:05:15;;;;;;;63.42;33.65;;;;;;;8.60;67.56;99612.53;10353264;28;20056;-79
2023/02/23 08:10:17;;;;;;;70.68;32.78;;;;;;;8.68;67.52;99612.09;10349367;28;20361;-79
2023/02/23 08:15:19;;;;;;;64.35;30.60;;;;;;;8.81;67.16;99610.47;10353883;28;20059;-79
2023/02/23 08:20:21;;;;;;;58.42;28.27;;;;;;;8.97;67.16;99610.41;10353577;28;20050;-78
2023/02/23 08:25:23;;;;;;;74.75;33.53;;;;;;;9.05;66.71;99614.25;10352380;28;20164;-79
2023/02/23 08:30:24;;;;;;;59.50;32.95;;;;;;;9.13;66.71;99608.59;10350678;28;20079;-79
2023/02/23 08:35:28;;;;;;;64.95;37.58;;;;;;;9.14;66.78;99610.25;10352511;28;20049;-79
2023/02/23 08:40:30;;;;;;;82.70;45.60;;;;;;;9.25;66.68;99619.13;10353625;28;20145;-79
2023/02/23 08:45:32;;;;;;;60.30;35.78;;;;;;;9.29;66.86;99622.41;10352227;28;20049;-79
2023/02/23 08:50:33;;;;;;;77.50;42.70;;;;;;;9.26;67.14;99628.63;10353183;28;20075;-79
2023/02/23 08:55:37;;;;;;;86.55;46.47;;;;;;;9.58;66.82;99616.28;10351585;28;20061;-79
2023/02/23 09:00:39;;;;;;;81.80;42.05;;;;;;;9.81;66.62;99623.56;10352036;28;20054;-79
2023/02/23 09:05:42;;;;;;;87.47;51.85;;;;;;;9.81;66.80;99627.97;10348957;28;20050;-79
2023/02/23 09:10:43;;;;;;;64.22;39.53;;;;;;;9.94;66.46;99628.88;10351419;28;20084;-79
2023/02/23 09:15:46;;;;;;;58.63;32.47;;;;;;;10.07;66.53;99632.44;10351903;28;20468;-79
2023/02/23 09:20:49;;;;;;;58.13;30.83;;;;;;;10.10;66.33;99634.81;10350717;28;20089;-79
2023/02/23 09:25:50;;;;;;;66.18;33.33;;;;;;;10.05;66.08;99640.38;10345180;28;20053;-79
2023/02/23 09:30:52;;;;;;;44.63;28.02;;;;;;;9.94;66.48;99641.94;10349891;28;20058;-79
2023/02/23 09:35:54;;;;;;;53.08;31.27;;;;;;;9.80;67.23;99647.16;10352530;28;20116;-79
2023/02/23 09:40:55;;;;;;;89.70;44.22;;;;;;;9.84;67.11;99646.06;10355096;28;20833;-79
2023/02/23 09:46:22;;;;;;;54.03;31.52;;;;;;;9.83;67.48;99649.63;10361096;28;20056;-79
2023/02/23 09:51:26;;;;;;;51.30;30.88;;;;;;;10.10;67.31;99653.97;10362872;28;20045;-79
2023/02/23 09:56:44;;;;;;;38.42;24.75;;;;;;;10.40;67.06;99654.66;10366973;28;20066;-79
2023/02/23 10:01:48;;;;;;;55.22;32.75;;;;;;;10.67;66.88;99659.06;10365731;28;20569;-79
2023/02/23 10:07:13;;;;;;;49.78;29.92;;;;;;;10.77;66.71;99655.75;10365154;28;20107;-79
2023/02/23 10:12:43;;;;;;;56.95;35.40;;;;;;;10.59;66.71;99667.41;10362192;28;20145;-79
2023/02/23 10:18:02;;;;;;;41.05;27.98;;;;;;;10.47;66.52;99663.81;10360801;28;20441;-79
2023/02/23 10:23:14;;;;;;;48.67;29.42;;;;;;;10.65;66.71;99672.25;10358826;28;20054;-79
2023/02/23 10:28:20;;;;;;;39.35;27.88;;;;;;;10.94;66.16;99673.81;10357773;28;20396;-79
2023/02/23 10:33:28;;;;;;;40.15;27.00;;;;;;;10.97;65.05;99673.59;10357473;28;20085;-79
2023/02/23 10:38:30;;;;;;;39.30;26.25;;;;;;;11.27;65.02;99676.03;10356545;28;20046;-79
2023/02/23 10:43:32;;;;;;;38.53;26.48;;;;;;;11.65;63.94;99681.28;10349630;28;20491;-79
2023/02/23 10:48:41;;;;;;;37.53;26.30;;;;;;;11.67;63.16;99684.66;10353824;28;20089;-79
2023/02/23 10:53:43;;;;;;;38.95;27.30;;;;;;;11.72;63.20;99688.63;10353109;28;20144;-79
2023/02/23 10:58:57;;;;;;;36.28;25.25;;;;;;;11.40;63.43;99683.91;10355561;28;20045;-79
2023/02/23 11:04:17;;;;;;;31.55;24.30;;;;;;;11.17;62.72;99688.88;10351087;28;20085;-79
2023/02/23 11:09:30;;;;;;;35.53;25.98;;;;;;;11.22;63.21;99686.78;10353671;28;20103;-79
2023/02/23 11:14:52;;;;;;;34.25;25.88;;;;;;;11.30;63.37;99687.13;10362641;28;20064;-79
2023/02/23 11:20:24;;;;;;;36.00;26.98;;;;;;;11.19;63.12;99689.59;10354400;28;20137;-79
2023/02/23 11:25:31;;;;;;;39.00;28.02;;;;;;;11.26;64.09;99690.88;10354614;28;20531;-79
2023/02/23 11:30:36;;;;;;;40.33;29.90;;;;;;;11.17;64.20;99686.25;10355069;28;20053;-79
2023/02/23 11:35:38;;;;;;;32.75;25.80;;;;;;;10.99;64.30;99686.59;10355283;28;20050;-79
2023/02/23 11:40:40;;;;;;;43.25;31.08;;;;;;;10.99;64.32;99681.38;10353020;28;20053;-79
2023/02/23 11:45:49;;;;;;;31.73;24.13;;;;;;;10.85;63.86;99681.41;10354254;28;20053;-79
2023/02/23 11:50:52;;;;;;;35.50;27.35;;;;;;;10.82;63.95;99676.38;10354111;28;20576;-79
2023/02/23 11:55:58;;;;;;;46.35;33.33;;;;;;;10.54;64.31;99674.72;10352068;28;20068;-79
2023/02/23 12:01:10;;;;;;;55.15;35.83;;;;;;;10.42;64.75;99680.69;10352181;28;20054;-79
2023/02/23 12:06:34;;;;;;;45.63;30.88;;;;;;;10.34;64.53;99677.72;10353917;28;20068;-79
2023/02/23 12:11:41;;;;;;;44.20;29.85;;;;;;;10.42;64.24;99680.69;10351982;28;20506;-79
2023/02/23 12:16:49;;;;;;;42.78;28.67;;;;;;;10.40;63.67;99672.94;10357403;28;20538;-79
2023/02/23 12:22:25;;;;;;;47.38;29.42;;;;;;;10.74;63.39;99669.03;10352090;28;20085;-79
2023/02/23 12:27:36;;;;;;;40.65;27.75;;;;;;;11.12;62.97;99672.63;10342088;28;20078;-79
2023/02/23 12:33:05;;;;;;;43.35;28.58;;;;;;;11.58;62.09;99667.75;10348637;28;20499;-79
2023/02/23 12:38:32;;;;;;;37.83;27.02;;;;;;;11.82;61.41;99660.88;10351052;28;20049;-79
2023/02/23 12:43:48;;;;;;;46.60;32.20;;;;;;;12.09;61.17;99665.94;10345699;28;20490;-79
2023/02/23 12:49:02;;;;;;;42.63;28.27;;;;;;;12.06;61.43;99658.31;10344102;28;20120;-79
2023/02/23 12:54:10;;;;;;;41.72;29.23;;;;;;;12.05;61.42;99643.53;10346118;28;20062;-78
2023/02/23 12:59:18;;;;;;;37.78;26.00;;;;;;;12.07;60.95;99646.88;10344975;28;20054;-78
2023/02/23 13:05:02;;;;;;;32.28;24.58;;;;;;;12.30;60.07;99633.03;10338630;28;21039;-78
2023/02/23 13:10:30;;;;;;;33.72;24.90;;;;;;;12.62;59.85;99634.16;10342642;28;20367;-78
2023/02/23 13:16:03;;;;;;;27.00;20.45;;;;;;;12.80;58.63;99629.38;10347357;28;20064;-78
2023/02/23 13:21:30;;;;;;;23.10;17.77;;;;;;;13.13;57.93;99618.16;10350233;28;20050;-79
2023/02/23 13:26:45;;;;;;;22.48;16.33;;;;;;;12.88;57.96;99613.91;10352933;28;20189;-78
2023/02/23 13:31:47;;;;;;;19.75;15.68;;;;;;;12.99;57.61;99619.16;10365127;28;20052;-79
2023/02/23 13:36:50;;;;;;;20.77;15.40;;;;;;;13.00;56.74;99623.47;10355408;28;20462;-79
2023/02/23 13:42:20;;;;;;;19.90;15.10;;;;;;;12.78;55.79;99624.22;10349169;28;20046;-78
2023/02/23 13:47:45;;;;;;;17.90;13.50;;;;;;;12.53;56.29;99624.34;10349818;28;20049;-78
2023/02/23 13:52:48;;;;;;;18.00;13.13;;;;;;;12.63;56.28;99625.34;10348551;28;20415;-78
2023/02/23 13:57:51;;;;;;;17.85;12.68;;;;;;;12.55;56.24;99632.09;10351750;28;20050;-78
2023/02/23 14:02:53;;;;;;;20.90;14.27;;;;;;;12.29;56.06;99630.50;10348021;28;20068;-78
2023/02/23 14:08:03;;;;;;;22.50;14.95;;;;;;;12.24;56.12;99638.66;10351723;28;20046;-79
2023/02/23 14:13:24;;;;;;;20.50;15.57;;;;;;;12.04;55.68;99636.63;10345633;28;20060;-78
2023/02/23 14:18:29;;;;;;;18.10;13.50;;;;;;;12.19;56.06;99627.69;10351712;28;20053;-78
2023/02/23 14:23:52;;;;;;;19.42;13.88;;;;;;;12.31;55.23;99632.09;10351476;28;20483;-78
2023/02/23 14:29:27;;;;;;;18.15;13.50;;;;;;;12.23;54.80;99639.63;10349455;28;20064;-78
2023/02/23 14:34:47;;;;;;;18.42;13.35;;;;;;;11.96;55.38;99646.81;10347247;28;20117;-78
2023/02/23 14:39:53;;;;;;;19.73;15.03;;;;;;;11.85;56.50;99646.69;10354680;28;20065;-78
2023/02/23 14:45:25;;;;;;;19.75;15.32;;;;;;;11.75;56.45;99646.50;10354990;28;20507;-78
2023/02/23 14:50:34;;;;;;;19.08;14.68;;;;;;;11.49;56.91;99649.22;10357334;28;20407;-79
2023/02/23 14:55:42;;;;;;;18.95;14.73;;;;;;;11.29;57.49;99648.78;10355890;28;20093;-78
2023/02/23 15:00:43;;;;;;;19.67;14.77;;;;;;;11.20;57.92;99657.28;10367422;28;20088;-78
2023/02/23 15:06:05;;;;;;;19.98;14.73;;;;;;;11.13;57.75;99642.91;10356076;28;20068;-78
2023/02/23 15:11:13;;;;;;;20.55;15.05;;;;;;;10.76;58.34;99656.72;10363854;28;20507;-78
2023/02/23 15:16:23;;;;;;;20.00;14.57;;;;;;;10.84;58.09;99656.19;10361640;28;20467;-78
2023/02/23 15:21:24;;;;;;;18.90;15.13;;;;;;;10.85;58.33;99652.63;10352241;28;20052;-79
2023/02/23 15:26:36;;;;;;;22.35;16.50;;;;;;;10.88;58.40;99653.28;10354437;28;20065;-78
2023/02/23 15:31:39;;;;;;;;;;;;;;;10.49;59.24;99656.69;10354285;28;20053;-79
2023/02/23 15:36:45;;;;;;;24.63;19.77;;;;;;;10.54;59.18;99660.78;10349589;28;19932;-78
2023/02/23 15:41:48;;;;;;;24.83;18.83;;;;;;;10.68;58.85;99661.59;10352601;28;20168;-79
2023/02/23 15:46:54;;;;;;;25.17;19.48;;;;;;;10.76;59.22;99661.94;10341824;28;20695;-78
2023/02/23 15:52:00;;;;;;;27.48;21.85;;;;;;;10.82;59.16;99669.38;10351732;28;20060;-79
2023/02/23 15:57:12;;;;;;;27.48;19.65;;;;;;;10.68;59.63;99676.44;10346973;28;20065;-78
2023/02/23 16:02:22;;;;;;;28.15;21.45;;;;;;;10.67;59.72;99677.38;10349591;28;20783;-79
2023/02/23 16:07:34;;;;;;;30.02;23.35;;;;;;;10.67;60.03;99678.22;10347084;28;20473;-78
2023/02/23 16:12:38;;;;;;;30.92;24.08;;;;;;;10.54;60.21;99674.72;10344362;28;20050;-78
2023/02/23 16:17:46;;;;;;;32.75;24.58;;;;;;;10.52;60.27;99680.97;10347801;28;20100;-78
2023/02/23 16:22:52;;;;;;;30.08;23.08;;;;;;;10.50;60.29;99681.88;10348192;28;20046;-78
2023/02/23 16:28:01;;;;;;;29.35;23.00;;;;;;;10.39;60.34;99692.19;10348406;28;20053;-78
2023/02/23 16:33:20;;;;;;;28.65;22.67;;;;;;;10.28;60.73;99678.94;10348830;28;20064;-78
2023/02/23 16:38:38;;;;;;;27.00;19.63;;;;;;;10.21;60.74;99682.06;10352849;28;20050;-77
2023/02/23 16:43:39;;;;;;;25.83;19.15;;;;;;;10.10;60.86;99674.88;10369707;28;20438;-78
2023/02/23 16:48:41;;;;;;;26.10;17.83;;;;;;;10.21;60.84;99679.44;10354904;28;20510;-78
2023/02/23 16:53:43;;;;;;;24.08;17.92;;;;;;;10.22;60.80;99678.50;10354956;28;20622;-78
2023/02/23 16:58:49;;;;;;;22.63;16.13;;;;;;;10.19;60.80;99686.53;10353066;28;20604;-78
2023/02/23 17:03:53;;;;;;;20.60;15.65;;;;;;;10.13;60.91;99694.75;10352350;28;21069;-83
2023/02/23 17:08:58;;;;;;;19.92;15.00;;;;;;;10.04;61.00;99696.16;10341711;28;20046;-80
2023/02/23 17:14:01;;;;;;;22.77;14.98;;;;;;;10.03;61.03;99699.72;10343210;28;20069;-79
2023/02/23 17:19:05;;;;;;;21.63;15.68;;;;;;;10.03;61.26;99699.72;10343281;28;20125;-79
2023/02/23 17:24:09;;;;;;;18.05;14.35;;;;;;;9.80;61.41;99708.09;10347029;28;20140;-79
2023/02/23 17:29:13;;;;;;;17.98;14.73;;;;;;;9.82;61.71;99705.38;10350089;28;20050;-80
2023/02/23 17:34:15;;;;;;;19.48;14.80;;;;;;;9.84;61.65;99711.34;10351961;28;20154;-80
2023/02/23 17:39:17;;;;;;;19.38;15.43;;;;;;;9.81;61.94;99714.16;10347533;28;20447;-79
2023/02/23 17:44:19;;;;;;;18.75;14.50;;;;;;;9.75;61.98;99717.97;10345268;28;20062;-80
2023/02/23 17:49:21;;;;;;;20.23;15.25;;;;;;;9.71;61.87;99710.41;10359615;28;20120;-80
2023/02/23 17:54:22;;;;;;;23.20;16.60;;;;;;;9.62;62.04;99707.41;10358523;28;20101;-80
2023/02/23 17:59:24;;;;;;;28.65;17.77;;;;;;;9.60;61.93;99706.66;10345692;28;20053;-80
2023/02/23 18:04:26;;;;;;;23.60;17.33;;;;;;;9.60;62.14;99704.03;10352071;28;20260;-79
2023/02/23 18:09:28;;;;;;;27.70;19.63;;;;;;;9.56;61.75;99705.13;10348497;28;20054;-79
2023/02/23 18:14:31;;;;;;;37.40;23.95;;;;;;;9.38;62.00;99716.63;10351603;28;20085;-79
2023/02/23 18:19:34;;;;;;;33.05;22.35;;;;;;;9.40;62.08;99722.63;10350486;28;20041;-79
2023/02/23 18:24:37;;;;;;;39.55;25.45;;;;;;;9.34;61.72;99720.34;10348441;28;20057;-80
2023/02/23 18:29:39;;;;;;;41.63;26.38;;;;;;;9.34;61.98;99717.75;10352608;28;20104;-79
2023/02/23 18:34:40;;;;;;;41.80;26.60;;;;;;;9.28;61.80;99717.28;10352962;28;20056;-79
2023/02/23 18:39:42;;;;;;;45.80;29.75;;;;;;;9.15;61.99;99719.75;10353368;28;20064;-79
2023/02/23 18:44:44;;;;;;;48.63;29.50;;;;;;;9.23;61.97;99712.31;10351187;28;20529;-80
2023/02/23 18:49:46;;;;;;;50.47;31.23;;;;;;;9.21;61.92;99713.34;10354258;28;20119;-80
2023/02/23 18:54:48;;;;;;;51.65;32.08;;;;;;;9.23;61.86;99716.69;10359657;28;20050;-79
2023/02/23 18:59:49;;;;;;;52.75;31.33;;;;;;;9.29;61.46;99708.50;10362367;28;20046;-79
2023/02/23 19:04:51;;;;;;;48.28;29.58;;;;;;;9.18;61.59;99716.13;10357161;28;20054;-79
2023/02/23 19:09:53;;;;;;;50.60;29.88;;;;;;;9.02;61.50;99710.09;10356687;28;20136;-79
2023/02/23 19:14:56;;;;;;;46.28;28.27;;;;;;;8.97;62.26;99710.38;10355725;28;20058;-79
2023/02/23 19:19:59;;;;;;;50.20;30.48;;;;;;;8.86;62.16;99717.94;10353057;28;20099;-79
2023/02/23 19:25:01;;;;;;;54.83;30.45;;;;;;;8.81;62.36;99710.38;10353026;28;20550;-79
2023/02/23 19:30:08;;;;;;;51.03;29.30;;;;;;;8.79;62.18;99711.41;10356980;28;20049;-79
2023/02/23 19:35:13;;;;;;;44.50;27.27;;;;;;;8.68;62.63;99703.31;10349491;28;20419;-80
2023/02/23 19:40:21;;;;;;;47.28;28.27;;;;;;;8.60;62.72;99711.59;10345883;28;20052;-80
2023/02/23 19:45:24;;;;;;;49.30;28.35;;;;;;;8.66;62.50;99715.59;10363395;28;20065;-79
2023/02/23 19:50:26;;;;;;;42.97;27.63;;;;;;;8.75;62.47;99715.94;10351219;28;20049;-79
2023/02/23 19:55:28;;;;;;;48.45;29.38;;;;;;;8.68;61.95;99718.97;10352451;28;20273;-80
2023/02/23 20:00:30;;;;;;;48.45;28.88;;;;;;;8.54;62.05;99731.94;10349868;28;20454;-80
2023/02/23 20:05:41;;;;;;;48.70;29.80;;;;;;;8.37;62.08;99734.59;10352341;28;20050;-80
2023/02/23 20:10:44;;;;;;;47.33;28.83;;;;;;;8.41;62.44;99731.75;10350239;28;20041;-79
2023/02/23 20:15:45;;;;;;;51.33;29.55;;;;;;;8.50;62.19;99735.63;10349371;28;20046;-80
2023/02/23 20:27:13;;;;;;;46.90;29.35;;;;;;;8.46;62.59;99748.00;10349255;28;20046;-80
2023/02/23 20:32:16;;;;;;;48.65;27.98;;;;;;;8.58;62.18;99744.72;10349856;28;20132;-80
2023/02/23 20:37:18;;;;;;;50.05;29.90;;;;;;;8.62;61.93;99745.38;10350785;28;20667;-80
2023/02/23 20:42:20;;;;;;;50.55;30.00;;;;;;;8.72;62.00;99749.16;10349291;28;20050;-80
2023/02/23 20:47:22;;;;;;;54.35;31.48;;;;;;;8.69;61.97;99752.78;10351671;28;20053;-80
2023/02/23 20:52:24;;;;;;;61.30;37.80;;;;;;;8.73;61.86;99751.69;10351543;28;21158;-79
2023/02/23 20:57:26;;;;;;;59.10;34.90;;;;;;;8.67;61.85;99756.38;10346436;28;20054;-80
2023/02/23 21:02:28;;;;;;;53.60;30.88;;;;;;;8.58;61.92;99757.75;10349970;28;20058;-80
2023/02/23 21:07:30;;;;;;;61.50;36.33;;;;;;;8.59;62.19;99755.97;10350753;28;20050;-80
2023/02/23 21:12:32;;;;;;;53.47;31.63;;;;;;;8.63;61.91;99749.66;10350399;28;20057;-80
2023/02/23 21:17:37;;;;;;;55.33;31.42;;;;;;;8.70;62.17;99751.00;10349290;28;20638;-79
2023/02/23 21:22:39;;;;;;;50.88;29.90;;;;;;;8.72;61.99;99751.78;10348304;28;20053;-79
2023/02/23 21:27:43;;;;;;;45.63;27.55;;;;;;;8.68;62.14;99755.47;10348102;28;20057;-80
2023/02/23 21:32:47;;;;;;;48.55;28.67;;;;;;;8.63;61.74;99753.09;10345760;28;20060;-80
2023/02/23 21:37:49;;;;;;;46.67;28.88;;;;;;;8.51;62.38;99745.94;10355947;28;20133;-80
2023/02/23 21:42:51;;;;;;;49.30;28.55;;;;;;;8.57;62.48;99747.38;10360083;28;20100;-80
2023/02/23 21:47:53;;;;;;;46.95;27.65;;;;;;;8.49;62.44;99739.13;10370676;28;20144;-80
2023/02/23 21:52:57;;;;;;;53.10;28.90;;;;;;;8.53;62.35;99738.03;10354925;28;20151;-80
2023/02/23 21:57:58;;;;;;;53.92;31.20;;;;;;;8.51;62.36;99734.69;10354961;28;20058;-80
2023/02/23 22:03:02;;;;;;;44.30;27.00;;;;;;;8.46;62.29;99736.72;10353734;28;20053;-80
2023/02/23 22:08:04;;;;;;;45.63;26.83;;;;;;;8.23;62.53;99727.53;10353466;28;20060;-80
2023/02/23 22:13:06;;;;;;;47.88;26.55;;;;;;;8.32;62.60;99731.41;10347083;28;20921;-79
2023/02/23 22:18:12;;;;;;;48.50;28.17;;;;;;;8.33;62.21;99723.50;10353608;28;20116;-80
2023/02/23 22:23:15;;;;;;;49.88;29.60;;;;;;;8.37;62.32;99719.81;10354657;28;20057;-80
2023/02/23 22:28:17;;;;;;;49.72;28.63;;;;;;;8.41;62.26;99721.31;10354605;28;20049;-80
2023/02/23 22:33:21;;;;;;;50.65;28.90;;;;;;;8.38;62.23;99721.50;10354821;28;20058;-80
2023/02/23 22:38:23;;;;;;;50.45;28.05;;;;;;;8.24;62.23;99721.38;10351714;28;20050;-80
2023/02/23 22:43:26;;;;;;;54.38;29.88;;;;;;;8.17;62.44;99722.63;10354503;28;20076;-80
2023/02/23 22:48:28;;;;;;;55.90;29.52;;;;;;;8.23;62.28;99721.47;10353492;28;20049;-80
2023/02/23 22:53:30;;;;;;;53.72;30.02;;;;;;;8.29;62.14;99716.78;10357213;28;20805;-80
2023/02/23 22:58:32;;;;;;;56.40;31.25;;;;;;;8.18;62.52;99710.47;10355541;28;20077;-79
2023/02/23 23:03:36;;;;;;;56.67;30.25;;;;;;;8.27;62.30;99705.59;10354936;28;20064;-80
2023/02/23 23:08:40;;;;;;;55.17;30.13;;;;;;;8.22;62.33;99697.16;10348642;28;20398;-79
2023/02/23 23:13:45;;;;;;;54.30;29.95;;;;;;;8.26;62.37;99690.88;10351719;28;20637;-80
2023/02/23 23:18:55;;;;;;;57.75;30.67;;;;;;;8.25;62.11;99681.38;10351449;28;20426;-80
2023/02/23 23:23:59;;;;;;;55.08;30.70;;;;;;;8.10;62.29;99683.94;10356581;28;20058;-80
2023/02/23 23:29:06;;;;;;;59.17;30.25;;;;;;;8.18;62.23;99687.84;10341555;28;20069;-80
2023/02/23 23:34:09;;;;;;;56.00;30.67;;;;;;;8.00;62.37;99681.81;10354408;28;20577;-80
2023/02/23 23:39:12;;;;;;;55.22;30.65;;;;;;;7.98;62.38;99675.00;10350695;28;20054;-80
2023/02/23 23:44:19;;;;;;;55.60;29.58;;;;;;;8.11;62.42;99670.03;10353721;28;20487;-79
2023/02/23 23:49:24;;;;;;;53.58;28.90;;;;;;;8.21;62.28;99650.38;10351066;28;20053;-79
2023/02/23 23:54:31;;;;;;;52.67;29.65;;;;;;;8.23;62.27;99653.72;10350208;28;20058;-80
2023/02/23 23:59:34;;;;;;;53.78;29.20;;;;;;;8.29;62.18;99649.03;10350349;28;20046;-79
